Time;durP1;ratioP1;P1;durP2;ratioP2;P2;SDS_P1;SDS_P2;PMS_P1;PMS_P2;Temp;Humidity;BMP_temperature;BMP_pressure;BME280_temperature;BME280_humidity;BME280_pressure;Samples;Min_cycle;Max_cycle;Signal;HPM_P1;HPM_P2
2023/11/15 00:01:10;;;;;;;15.00;9.53;;;10.10;99.90;;;;;;5051210;28;20280;-74
2023/11/15 00:03:36;;;;;;;16.53;10.90;;;10.00;99.90;;;;;;5051281;28;20198;-73
2023/11/15 00:06:02;;;;;;;16.97;10.90;;;10.10;99.90;;;;;;5051071;28;20715;-74
2023/11/15 00:08:27;;;;;;;19.70;10.93;;;10.00;99.90;;;;;;5050862;28;20213;-74
2023/11/15 00:10:53;;;;;;;17.03;10.47;;;10.10;99.90;;;;;;5059413;28;20174;-74
2023/11/15 00:13:18;;;;;;;16.33;9.93;;;10.10;99.90;;;;;;5070724;28;20229;-73
2023/11/15 00:15:44;;;;;;;14.40;9.87;;;10.10;99.90;;;;;;5071040;28;20313;-72
2023/11/15 00:18:10;;;;;;;19.77;11.30;;;10.10;99.90;;;;;;5070831;28;20170;-74
2023/11/15 00:20:35;;;;;;;20.60;10.90;;;10.10;99.90;;;;;;5070886;28;20170;-74
2023/11/15 00:23:02;;;;;;;19.47;9.77;;;10.10;99.90;;;;;;5069461;28;20186;-73
2023/11/15 00:25:29;;;;;;;16.73;9.67;;;10.10;99.90;;;;;;5050873;28;20173;-74
2023/11/15 00:27:55;;;;;;;16.87;9.90;;;10.10;99.90;;;;;;5050532;28;20286;-74
2023/11/15 00:30:22;;;;;;;28.17;10.47;;;10.10;99.90;;;;;;5050748;28;20249;-74
2023/11/15 00:32:47;;;;;;;16.97;10.43;;;10.10;99.90;;;;;;5050933;28;20166;-73
2023/11/15 00:35:13;;;;;;;12.90;9.23;;;10.10;99.90;;;;;;5050897;28;20505;-72
2023/11/15 00:37:39;;;;;;;17.37;10.07;;;10.10;99.90;;;;;;5050585;28;20171;-72
2023/11/15 00:40:06;;;;;;;14.60;9.03;;;10.10;99.90;;;;;;5050746;28;20667;-73
2023/11/15 00:42:32;;;;;;;23.40;9.37;;;10.10;99.90;;;;;;5050693;28;20232;-73
2023/11/15 00:44:58;;;;;;;22.73;9.70;;;10.10;99.90;;;;;;5051510;28;20248;-74
2023/11/15 00:47:23;;;;;;;21.70;9.43;;;10.10;99.90;;;;;;5070448;28;20194;-73
2023/11/15 00:49:49;;;;;;;13.47;8.80;;;10.10;99.90;;;;;;5070793;28;20162;-73
2023/11/15 00:52:15;;;;;;;21.40;9.57;;;10.10;99.90;;;;;;5070074;28;20672;-73
2023/11/15 00:54:41;;;;;;;11.00;8.17;;;10.10;99.90;;;;;;5070707;28;20556;-73
2023/11/15 00:57:07;;;;;;;25.33;9.03;;;10.10;99.90;;;;;;5070570;28;20235;-73
2023/11/15 00:59:37;;;;;;;19.90;9.70;;;10.10;99.90;;;;;;5070550;28;20171;-74
2023/11/15 01:02:05;;;;;;;18.60;7.60;;;10.10;99.90;;;;;;5070579;28;20679;-73
2023/11/15 01:04:31;;;;;;;13.23;8.53;;;10.10;99.90;;;;;;5070526;28;20197;-72
2023/11/15 01:06:57;;;;;;;14.73;8.40;;;10.10;99.90;;;;;;5070253;28;20217;-73
2023/11/15 01:09:23;;;;;;;18.70;9.60;;;10.10;99.90;;;;;;5070809;28;20170;-73
2023/11/15 01:11:52;;;;;;;25.93;8.90;;;10.10;99.90;;;;;;5070661;28;20158;-73
2023/11/15 01:14:18;;;;;;;12.57;8.20;;;10.10;99.90;;;;;;5076738;23;20268;-90
2023/11/15 01:16:44;;;;;;;19.10;8.50;;;10.10;99.90;;;;;;5053658;28;20562;-89
2023/11/15 01:19:10;;;;;;;16.40;8.63;;;10.10;99.90;;;;;;5054175;28;20196;-90
2023/11/15 01:21:36;;;;;;;24.57;10.33;;;10.20;99.90;;;;;;5055133;28;20201;-91
2023/11/15 01:24:03;;;;;;;18.27;8.60;;;10.10;99.90;;;;;;5040595;28;20202;-90
2023/11/15 01:26:28;;;;;;;14.23;8.73;;;10.10;99.90;;;;;;5037591;28;20182;-90
2023/11/15 01:28:57;;;;;;;15.40;9.13;;;10.20;99.90;;;;;;5055096;28;20171;-90
2023/11/15 01:31:23;;;;;;;16.97;8.77;;;10.20;99.90;;;;;;5037511;28;20177;-89
2023/11/15 01:33:49;;;;;;;17.63;9.17;;;10.20;99.90;;;;;;5038059;28;20568;-90
2023/11/15 01:36:15;;;;;;;23.73;9.07;;;10.20;99.90;;;;;;5037183;28;20201;-91
2023/11/15 01:38:41;;;;;;;17.00;9.00;;;10.20;99.90;;;;;;5037731;28;20278;-91
2023/11/15 01:41:07;;;;;;;18.47;8.83;;;10.20;99.90;;;;;;5037974;28;20308;-91
2023/11/15 01:43:33;;;;;;;14.23;8.97;;;10.30;99.90;;;;;;5037720;28;20226;-90
2023/11/15 01:46:01;;;;;;;25.77;8.40;;;10.30;99.90;;;;;;5055018;28;20177;-90
2023/11/15 01:48:29;;;;;;;16.63;8.60;;;10.30;99.90;;;;;;5038327;28;20211;-90
2023/11/15 01:50:57;;;;;;;22.83;8.90;;;10.30;99.90;;;;;;5037779;28;20551;-89
2023/11/15 01:53:25;;;;;;;20.03;9.60;;;10.40;99.90;;;;;;5037549;28;20249;-88
2023/11/15 01:55:51;;;;;;;16.83;9.00;;;10.40;99.90;;;;;;5037768;28;20175;-89
2023/11/15 01:58:18;;;;;;;16.00;8.10;;;10.40;99.90;;;;;;5054613;28;20187;-89
2023/11/15 02:00:45;;;;;;;17.03;9.10;;;10.40;99.90;;;;;;5036906;28;20559;-89
2023/11/15 02:03:11;;;;;;;13.53;7.07;;;10.40;99.90;;;;;;5037230;28;20256;-89
2023/11/15 02:05:37;;;;;;;13.27;8.00;;;10.40;99.90;;;;;;5037229;28;20533;-89
2023/11/15 02:08:04;;;;;;;13.43;8.07;;;10.40;99.90;;;;;;5037443;28;20210;-90
2023/11/15 02:10:29;;;;;;;20.77;8.17;;;10.40;99.90;;;;;;5037277;28;20171;-90
2023/11/15 02:12:56;;;;;;;16.13;8.13;;;10.40;99.90;;;;;;5036520;28;20198;-90
2023/11/15 02:15:21;;;;;;;13.70;7.73;;;10.40;99.90;;;;;;5036784;28;20193;-90
2023/11/15 02:17:48;;;;;;;18.90;8.60;;;10.40;99.90;;;;;;5054911;28;20171;-89
2023/11/15 02:20:17;;;;;;;17.33;7.33;;;10.40;99.90;;;;;;5037203;28;20235;-90
2023/11/15 02:22:50;;;;;;;16.27;8.80;;;10.40;99.90;;;;;;5054853;28;20202;-90
2023/11/15 02:25:17;;;;;;;16.97;8.03;;;10.40;99.90;;;;;;5039616;28;20645;-89
2023/11/15 02:27:43;;;;;;;17.47;8.93;;;10.40;99.90;;;;;;5037309;28;20826;-90
2023/11/15 02:30:10;;;;;;;12.10;7.60;;;10.40;99.90;;;;;;5060318;28;20171;-91
2023/11/15 02:32:41;;;;;;;14.23;7.57;;;10.50;99.90;;;;;;5036208;28;20751;-89
2023/11/15 02:35:08;;;;;;;15.63;8.33;;;10.50;99.90;;;;;;5035925;28;20278;-89
2023/11/15 02:37:35;;;;;;;16.07;7.77;;;10.50;99.90;;;;;;5036671;28;20618;-91
2023/11/15 02:40:04;;;;;;;15.47;8.17;;;10.60;99.90;;;;;;5037312;28;20179;-90
2023/11/15 02:42:33;;;;;;;15.80;8.47;;;10.60;99.90;;;;;;5036424;28;20206;-89
2023/11/15 02:44:59;;;;;;;11.93;7.47;;;10.60;99.90;;;;;;5036489;28;20200;-90
2023/11/15 02:47:25;;;;;;;16.43;7.67;;;10.60;99.90;;;;;;5035796;28;20217;-89
2023/11/15 02:49:54;;;;;;;14.20;7.70;;;10.60;99.90;;;;;;5036014;28;20171;-90
2023/11/15 02:52:22;;;;;;;16.23;6.97;;;10.60;99.90;;;;;;5035943;28;20282;-90
2023/11/15 02:54:48;;;;;;;19.67;7.90;;;10.70;99.90;;;;;;5036891;28;20182;-89
2023/11/15 02:57:14;;;;;;;15.33;7.40;;;10.70;99.90;;;;;;5053793;28;20205;-88
2023/11/15 02:59:39;;;;;;;15.13;7.67;;;10.70;99.90;;;;;;5053961;28;20167;-90
2023/11/15 03:02:05;;;;;;;21.63;7.40;;;10.70;99.90;;;;;;5035721;28;20350;-90
2023/11/15 03:04:31;;;;;;;12.97;7.67;;;10.70;99.90;;;;;;5035908;28;20274;-90
2023/11/15 03:06:56;;;;;;;13.27;6.60;;;10.70;99.90;;;;;;5053560;28;20288;-90
2023/11/15 03:09:22;;;;;;;14.70;6.67;;;10.70;99.90;;;;;;5035665;28;20174;-90
2023/11/15 03:11:48;;;;;;;16.53;7.47;;;10.70;99.90;;;;;;5035886;28;20233;-89
2023/11/15 03:14:13;;;;;;;13.07;6.90;;;10.70;99.90;;;;;;5036099;28;20198;-89
2023/11/15 03:16:40;;;;;;;12.57;6.43;;;10.80;99.90;;;;;;5035644;28;20175;-89
2023/11/15 03:19:07;;;;;;;11.83;6.77;;;10.80;99.90;;;;;;5054010;28;20166;-89
2023/11/15 03:21:32;;;;;;;13.20;6.57;;;10.80;99.90;;;;;;5036205;28;20545;-90
2023/11/15 03:23:58;;;;;;;18.03;6.93;;;10.80;99.90;;;;;;5036609;28;20201;-89
2023/11/15 03:26:23;;;;;;;14.80;6.60;;;10.80;99.90;;;;;;5036271;28;20182;-89
2023/11/15 03:28:49;;;;;;;12.73;6.30;;;10.80;99.90;;;;;;5041136;28;20251;-89
2023/11/15 03:31:15;;;;;;;15.43;6.33;;;10.80;99.90;;;;;;5042113;28;20167;-91
2023/11/15 03:33:43;;;;;;;12.13;6.10;;;10.80;99.90;;;;;;5036027;28;20186;-90
2023/11/15 03:36:09;;;;;;;11.80;7.23;;;10.80;99.90;;;;;;5036060;28;20182;-89
2023/11/15 03:38:36;;;;;;;15.10;6.37;;;10.80;99.90;;;;;;5035491;28;20185;-89
2023/11/15 03:41:02;;;;;;;16.63;6.10;;;10.80;99.90;;;;;;5053474;28;20183;-89
2023/11/15 03:43:27;;;;;;;13.90;6.03;;;10.80;99.90;;;;;;5036601;28;20199;-90
2023/11/15 03:45:54;;;;;;;14.83;5.87;;;10.70;99.90;;;;;;5035273;28;20182;-89
2023/11/15 03:48:20;;;;;;;9.63;6.33;;;10.70;99.90;;;;;;5036270;28;20210;-91
2023/11/15 03:50:46;;;;;;;11.60;5.43;;;10.70;99.90;;;;;;5035416;28;20174;-90
2023/11/15 03:53:13;;;;;;;11.03;5.27;;;10.70;99.90;;;;;;5053430;28;20197;-91
2023/11/15 03:55:39;;;;;;;14.20;6.03;;;10.70;99.90;;;;;;5035595;28;20186;-90
2023/11/15 03:58:05;;;;;;;14.83;6.97;;;10.70;99.90;;;;;;5035219;28;20545;-90
2023/11/15 04:00:31;;;;;;;11.17;5.13;;;10.60;99.90;;;;;;5035364;28;20182;-90
2023/11/15 04:02:56;;;;;;;10.47;5.53;;;10.60;99.90;;;;;;5035571;28;20218;-90
2023/11/15 04:05:22;;;;;;;14.00;6.03;;;10.60;99.90;;;;;;5044374;28;20197;-91
2023/11/15 04:07:48;;;;;;;10.03;5.20;;;10.60;99.90;;;;;;5048253;28;20217;-89
2023/11/15 04:10:14;;;;;;;17.60;5.70;;;10.60;99.90;;;;;;5039194;28;20183;-89
2023/11/15 04:12:40;;;;;;;9.60;6.17;;;10.60;99.90;;;;;;5036334;28;20595;-90
2023/11/15 04:15:08;;;;;;;9.80;5.10;;;10.60;99.90;;;;;;5035682;28;20661;-90
2023/11/15 04:17:35;;;;;;;11.07;5.60;;;10.60;99.90;;;;;;5035045;28;20271;-90
2023/11/15 04:20:00;;;;;;;10.23;5.20;;;10.60;99.90;;;;;;5035764;28;20174;-91
2023/11/15 04:22:26;;;;;;;14.10;5.17;;;10.60;99.90;;;;;;5035421;28;20206;-91
2023/11/15 04:24:52;;;;;;;14.00;5.37;;;10.60;99.90;;;;;;5054076;28;20175;-91
2023/11/15 04:27:18;;;;;;;13.27;5.23;;;10.60;99.90;;;;;;5035385;28;20248;-90
2023/11/15 04:29:44;;;;;;;11.60;5.23;;;10.50;99.90;;;;;;5035413;28;20179;-90
2023/11/15 04:32:09;;;;;;;12.37;5.90;;;10.50;99.90;;;;;;5035141;28;20309;-90
2023/11/15 04:34:35;;;;;;;14.70;6.23;;;10.50;99.90;;;;;;5035461;28;20196;-90
2023/11/15 04:37:01;;;;;;;11.83;5.50;;;10.40;99.90;;;;;;5035430;28;20171;-90
2023/11/15 04:39:27;;;;;;;12.33;5.83;;;10.40;99.90;;;;;;5035967;28;20656;-90
2023/11/15 04:41:52;;;;;;;17.77;6.13;;;10.50;99.90;;;;;;5035547;28;20271;-90
2023/11/15 04:44:19;;;;;;;18.70;5.70;;;10.50;99.90;;;;;;5035095;28;20199;-90
2023/11/15 04:46:46;;;;;;;16.80;5.70;;;10.50;99.90;;;;;;5035382;28;20182;-90
2023/11/15 04:49:12;;;;;;;17.23;6.30;;;10.50;99.90;;;;;;5035362;28;20175;-91
2023/11/15 04:51:38;;;;;;;13.00;5.50;;;10.50;99.90;;;;;;5034903;28;20558;-90
2023/11/15 04:54:05;;;;;;;13.57;5.80;;;10.50;99.90;;;;;;5035375;28;20194;-90
2023/11/15 04:56:32;;;;;;;15.57;6.07;;;10.50;99.90;;;;;;5035740;28;20217;-90
2023/11/15 04:58:57;;;;;;;12.80;5.93;;;10.50;99.90;;;;;;5039640;28;20214;-89
2023/11/15 05:01:23;;;;;;;12.60;5.60;;;10.50;99.90;;;;;;5039619;28;20178;-90
2023/11/15 05:03:49;;;;;;;12.17;6.00;;;10.50;99.90;;;;;;5056995;28;20186;-91
2023/11/15 05:06:14;;;;;;;11.67;5.70;;;10.50;99.90;;;;;;5056497;28;20182;-90
2023/11/15 05:08:40;;;;;;;15.00;6.00;;;10.50;99.90;;;;;;5038659;28;20206;-90
2023/11/15 05:11:06;;;;;;;16.20;6.43;;;10.50;99.90;;;;;;5038934;28;20213;-90
2023/11/15 05:13:31;;;;;;;6.77;4.80;;;10.50;99.90;;;;;;5038617;28;20682;-90
2023/11/15 05:15:58;;;;;;;11.53;5.30;;;10.50;99.90;;;;;;5056499;28;20178;-91
2023/11/15 05:18:24;;;;;;;10.50;5.50;;;10.50;99.90;;;;;;5036919;28;20316;-91
2023/11/15 05:20:51;;;;;;;19.30;6.00;;;10.60;99.90;;;;;;5037758;28;20261;-90
2023/11/15 05:23:17;;;;;;;10.90;5.33;;;10.60;99.90;;;;;;5037716;28;20285;-89
2023/11/15 05:25:43;;;;;;;14.27;5.60;;;10.60;99.90;;;;;;5055246;28;20577;-90
2023/11/15 05:28:11;;;;;;;10.17;5.30;;;10.50;99.90;;;;;;5037365;28;20301;-89
2023/11/15 05:30:36;;;;;;;12.23;5.60;;;10.50;99.90;;;;;;5055426;28;20174;-90
2023/11/15 05:33:02;;;;;;;18.83;5.30;;;10.50;99.90;;;;;;5037023;28;20198;-91
2023/11/15 05:35:27;;;;;;;18.67;6.00;;;10.50;99.90;;;;;;5036834;28;20199;-89
2023/11/15 05:37:53;;;;;;;10.17;5.40;;;10.40;99.90;;;;;;5036818;28;20638;-91
2023/11/15 05:40:19;;;;;;;11.77;5.03;;;10.40;99.90;;;;;;5037180;28;20271;-90
2023/11/15 05:42:44;;;;;;;11.47;5.20;;;10.40;99.90;;;;;;5036790;28;20198;-91
2023/11/15 05:45:11;;;;;;;15.50;5.43;;;10.30;99.90;;;;;;5036141;28;20187;-89
2023/11/15 05:47:40;;;;;;;13.30;5.60;;;10.30;99.90;;;;;;5036115;28;20751;-90
2023/11/15 05:50:09;;;;;;;15.20;5.67;;;10.30;99.90;;;;;;5054963;28;20183;-91
2023/11/15 05:52:34;;;;;;;11.03;5.23;;;10.30;99.90;;;;;;5037949;28;20195;-90
2023/11/15 05:55:00;;;;;;;12.73;4.93;;;10.30;99.90;;;;;;5054241;28;20309;-90
2023/11/15 05:57:26;;;;;;;17.03;5.90;;;10.30;99.90;;;;;;5048507;28;20234;-89
2023/11/15 05:59:52;;;;;;;14.47;6.30;;;10.30;99.90;;;;;;5078333;28;20163;-86
2023/11/15 06:02:18;;;;;;;10.97;5.60;;;10.30;99.90;;;;;;5043899;28;20199;-90
2023/11/15 06:04:43;;;;;;;19.73;6.70;;;10.30;99.90;;;;;;5038340;28;20213;-89
2023/11/15 06:07:09;;;;;;;9.97;5.67;;;10.30;99.90;;;;;;5038810;28;20244;-89
2023/11/15 06:09:37;;;;;;;15.10;6.27;;;10.20;99.90;;;;;;5035952;28;20178;-90
2023/11/15 06:12:03;;;;;;;17.37;6.70;;;10.30;99.90;;;;;;5036670;28;20178;-91
2023/11/15 06:14:28;;;;;;;12.67;6.10;;;10.20;99.90;;;;;;4985009;28;1454065;-90
2023/11/15 06:16:54;;;;;;;13.17;6.63;;;10.20;99.90;;;;;;5038830;28;20552;-90
2023/11/15 06:19:21;;;;;;;16.37;6.13;;;10.10;99.90;;;;;;5038829;28;20688;-90
2023/11/15 06:21:46;;;;;;;17.83;5.60;;;10.20;99.90;;;;;;5037045;28;20206;-90
2023/11/15 06:24:15;;;;;;;11.10;5.70;;;10.20;99.90;;;;;;5037394;28;20230;-90
2023/11/15 06:26:41;;;;;;;12.50;6.10;;;10.20;99.90;;;;;;5036964;28;20531;-89
2023/11/15 06:29:07;;;;;;;13.10;6.83;;;10.30;99.90;;;;;;5036734;28;20175;-91
2023/11/15 06:31:36;;;;;;;14.60;6.53;;;10.30;99.90;;;;;;5036436;28;20198;-91
2023/11/15 06:34:06;;;;;;;14.07;6.70;;;10.40;99.90;;;;;;5037865;28;20226;-90
2023/11/15 06:36:36;;;;;;;9.80;5.87;;;10.40;99.90;;;;;;5036856;28;20181;-89
2023/11/15 06:39:08;;;;;;;11.73;5.80;;;10.40;99.90;;;;;;5037212;28;20688;-89
2023/11/15 06:41:34;;;;;;;15.73;6.13;;;10.40;99.90;;;;;;5037491;28;20214;-89
2023/11/15 06:44:00;;;;;;;21.50;6.73;;;10.30;99.90;;;;;;5036480;28;20549;-88
2023/11/15 06:46:26;;;;;;;11.33;6.80;;;10.30;99.90;;;;;;5043926;28;20233;-89
2023/11/15 06:48:53;;;;;;;24.20;9.80;;;10.30;99.90;;;;;;5044022;28;20198;-90
2023/11/15 06:51:20;;;;;;;13.07;6.60;;;10.30;99.90;;;;;;5038231;28;20183;-90
2023/11/15 06:53:46;;;;;;;26.37;7.23;;;10.30;99.90;;;;;;5036276;28;20456;-89
2023/11/15 06:56:12;;;;;;;15.47;6.83;;;10.40;99.90;;;;;;5036456;28;20167;-90
2023/11/15 06:58:37;;;;;;;24.33;7.10;;;10.40;99.90;;;;;;5037856;28;20264;-89
2023/11/15 07:01:07;;;;;;;15.07;6.30;;;10.40;99.90;;;;;;5054327;28;20171;-90
2023/11/15 07:03:32;;;;;;;14.23;6.50;;;10.50;99.90;;;;;;5035911;28;20282;-90
2023/11/15 07:05:58;;;;;;;18.53;6.23;;;10.50;99.90;;;;;;5035670;28;20262;-89
2023/11/15 07:08:24;;;;;;;11.70;6.63;;;10.50;99.90;;;;;;5035466;28;20685;-89
2023/11/15 07:10:49;;;;;;;14.27;6.17;;;10.60;99.90;;;;;;5035707;28;20213;-90
2023/11/15 07:13:16;;;;;;;14.30;7.80;;;10.60;99.90;;;;;;5036154;28;20203;-89
2023/11/15 07:15:44;;;;;;;18.30;7.13;;;10.60;99.90;;;;;;5036234;28;20225;-90
2023/11/15 07:18:10;;;;;;;14.87;6.83;;;10.60;99.90;;;;;;5034796;28;20186;-89
2023/11/15 07:20:38;;;;;;;9.80;5.97;;;10.70;99.90;;;;;;5035750;28;20184;-90
2023/11/15 07:23:03;;;;;;;15.60;6.60;;;10.70;99.90;;;;;;5054791;28;20564;-90
2023/11/15 07:25:29;;;;;;;20.97;6.83;;;10.80;99.90;;;;;;5036581;28;20205;-89
2023/11/15 07:27:58;;;;;;;14.87;5.80;;;10.80;99.90;;;;;;5054799;28;20252;-89
2023/11/15 07:30:24;;;;;;;9.70;6.07;;;10.80;99.90;;;;;;5054560;28;20179;-90
2023/11/15 07:32:50;;;;;;;11.07;6.13;;;10.80;99.90;;;;;;5035987;28;20217;-89
2023/11/15 07:35:16;;;;;;;8.93;5.57;;;10.80;99.90;;;;;;5037046;28;20171;-90
2023/11/15 07:37:43;;;;;;;12.40;5.47;;;10.80;99.90;;;;;;5036599;28;20248;-89
2023/11/15 07:40:12;;;;;;;16.63;6.70;;;10.80;99.90;;;;;;5042913;28;20182;-90
2023/11/15 07:42:39;;;;;;;16.27;6.57;;;10.80;99.90;;;;;;5041314;28;20242;-90
2023/11/15 07:45:08;;;;;;;14.67;6.43;;;10.80;99.90;;;;;;5038094;28;20174;-89
2023/11/15 07:47:34;;;;;;;10.10;5.07;;;10.80;99.90;;;;;;5038217;28;20248;-89
2023/11/15 07:50:02;;;;;;;15.03;5.77;;;10.80;99.90;;;;;;5057552;28;20820;-91
2023/11/15 07:52:33;;;;;;;10.93;5.57;;;10.80;99.90;;;;;;5041302;28;20232;-90
2023/11/15 07:54:59;;;;;;;16.50;5.67;;;10.80;99.90;;;;;;5037777;28;20175;-90
2023/11/15 07:57:24;;;;;;;14.00;6.40;;;10.90;99.90;;;;;;5039743;28;20201;-89
2023/11/15 07:59:51;;;;;;;11.97;6.50;;;10.90;99.90;;;;;;5045465;28;20210;-87
2023/11/15 08:02:19;;;;;;;15.93;6.70;;;10.90;99.90;;;;;;5055578;28;20225;-87
2023/11/15 08:04:44;;;;;;;17.00;6.17;;;11.00;99.90;;;;;;5040834;28;20552;-90
2023/11/15 08:07:11;;;;;;;12.00;5.47;;;11.10;99.90;;;;;;5034808;28;20202;-90
2023/11/15 08:09:37;;;;;;;9.73;5.50;;;11.10;99.90;;;;;;5034363;28;20167;-90
2023/11/15 08:12:03;;;;;;;17.53;5.70;;;11.20;99.90;;;;;;5053403;28;20254;-89
2023/11/15 08:14:31;;;;;;;13.60;5.63;;;11.30;99.90;;;;;;5035026;28;20190;-90
2023/11/15 08:16:57;;;;;;;12.97;4.43;;;11.30;99.90;;;;;;5035384;28;20175;-90
2023/11/15 08:19:23;;;;;;;10.77;5.60;;;11.40;99.90;;;;;;5035063;28;20680;-90
2023/11/15 08:21:49;;;;;;;9.73;5.33;;;11.40;99.90;;;;;;5035618;28;20167;-90
2023/11/15 08:24:22;;;;;;;12.07;5.17;;;11.40;99.90;;;;;;5035264;28;20195;-91
2023/11/15 08:26:52;;;;;;;13.40;5.20;;;11.50;99.90;;;;;;5039529;28;20206;-90
2023/11/15 08:29:18;;;;;;;8.43;5.20;;;11.50;99.90;;;;;;5054273;28;20201;-90
2023/11/15 08:31:44;;;;;;;10.00;4.83;;;11.50;99.90;;;;;;5040604;28;20265;-90
2023/11/15 08:34:10;;;;;;;13.80;5.40;;;11.50;99.90;;;;;;5040678;28;20608;-91
2023/11/15 08:36:37;;;;;;;9.70;4.87;;;11.40;99.90;;;;;;5057409;28;20537;-90
2023/11/15 08:39:02;;;;;;;16.90;5.53;;;11.40;99.90;;;;;;5043134;28;20652;-90
2023/11/15 08:41:28;;;;;;;23.97;6.40;;;11.30;99.90;;;;;;5042022;28;20206;-90
2023/11/15 08:43:54;;;;;;;11.60;5.30;;;11.30;99.90;;;;;;5043773;28;20199;-91
2023/11/15 08:46:23;;;;;;;13.57;4.90;;;11.40;99.90;;;;;;5042717;28;20808;-87
2023/11/15 08:48:51;;;;;;;13.17;5.37;;;11.40;99.90;;;;;;5040466;28;20212;-90
2023/11/15 08:51:19;;;;;;;10.43;5.47;;;11.50;99.90;;;;;;5058216;28;20173;-90
2023/11/15 08:53:45;;;;;;;13.33;4.63;;;11.60;99.90;;;;;;5040600;28;20198;-90
2023/11/15 08:56:13;;;;;;;12.20;4.70;;;11.70;99.90;;;;;;5040187;28;20262;-91
2023/11/15 08:58:39;;;;;;;14.40;4.53;;;11.70;99.90;;;;;;5039904;28;20629;-90
2023/11/15 09:01:05;;;;;;;7.90;5.10;;;11.70;99.90;;;;;;5040901;28;20183;-90
2023/11/15 09:03:32;;;;;;;13.57;4.53;;;11.60;99.90;;;;;;5041903;28;20281;-90
2023/11/15 09:05:59;;;;;;;10.80;4.80;;;11.50;99.90;;;;;;5041452;28;20269;-91
2023/11/15 09:08:25;;;;;;;13.57;4.70;;;11.50;99.90;;;;;;5041157;28;20202;-90
2023/11/15 09:10:51;;;;;;;11.43;4.50;;;11.50;99.90;;;;;;5058798;28;20206;-90
2023/11/15 09:13:18;;;;;;;9.13;5.00;;;11.50;99.90;;;;;;5041464;28;20191;-90
2023/11/15 09:15:46;;;;;;;9.13;4.80;;;11.50;99.90;;;;;;5040965;28;20194;-90
2023/11/15 09:18:15;;;;;;;11.40;6.03;;;11.50;99.90;;;;;;5041245;28;20277;-90
2023/11/15 09:20:41;;;;;;;17.10;6.23;;;11.60;99.90;;;;;;5059618;28;20179;-90
2023/11/15 09:23:08;;;;;;;11.60;4.57;;;11.70;99.90;;;;;;5059165;28;20341;-90
2023/11/15 09:25:35;;;;;;;10.97;5.57;;;11.70;99.90;;;;;;5039526;28;20663;-90
2023/11/15 09:28:04;;;;;;;12.00;5.03;;;11.80;99.90;;;;;;5056856;28;20201;-90
2023/11/15 09:30:33;;;;;;;10.40;5.17;;;12.00;99.90;;;;;;5057198;28;20174;-89
2023/11/15 09:32:59;;;;;;;8.80;5.10;;;12.00;99.90;;;;;;5039119;28;20191;-90
2023/11/15 09:35:29;;;;;;;11.23;5.47;;;12.10;99.90;;;;;;5023102;28;20171;-91
2023/11/15 09:37:58;;;;;;;6.50;4.53;;;12.00;99.90;;;;;;5060023;28;20171;-90
2023/11/15 09:40:25;;;;;;;9.60;4.87;;;12.00;99.90;;;;;;5039511;28;20661;-89
2023/11/15 09:42:52;;;;;;;10.57;4.30;;;12.10;99.90;;;;;;5056966;28;20191;-90
2023/11/15 09:45:20;;;;;;;8.53;4.60;;;12.10;99.90;;;;;;5039258;28;20179;-90
2023/11/15 09:47:47;;;;;;;10.17;4.30;;;12.10;99.90;;;;;;5038783;28;20289;-90
2023/11/15 09:50:31;;;;;;;11.60;4.30;;;12.10;99.90;;;;;;5039194;28;20177;-90
2023/11/15 09:53:02;;;;;;;10.27;5.07;;;12.10;99.90;;;;;;5051721;28;20225;-88
2023/11/15 09:55:28;;;;;;;9.50;4.67;;;12.00;99.90;;;;;;5079843;28;20158;-88
2023/11/15 09:57:54;;;;;;;16.03;4.80;;;12.00;99.90;;;;;;5052921;28;20533;-90
2023/11/15 10:00:21;;;;;;;11.53;4.57;;;12.00;99.90;;;;;;5056830;28;20179;-90
2023/11/15 10:02:47;;;;;;;6.93;4.40;;;12.20;99.90;;;;;;5041388;28;20206;-90
2023/11/15 10:05:19;;;;;;;7.60;4.27;;;12.40;99.90;;;;;;5055219;28;20194;-90
2023/11/15 10:07:51;;;;;;;13.33;4.70;;;12.50;99.90;;;;;;5053418;28;20606;-90
2023/11/15 10:10:21;;;;;;;10.30;4.93;;;12.60;99.90;;;;;;5058637;28;20178;-90
2023/11/15 10:12:53;;;;;;;12.57;4.87;;;12.60;99.90;;;;;;5039553;28;20201;-90
2023/11/15 10:15:29;;;;;;;9.17;4.30;;;12.50;99.90;;;;;;5040313;28;20190;-90
2023/11/15 10:17:56;;;;;;;8.50;4.20;;;12.50;99.90;;;;;;5039943;28;20205;-89
2023/11/15 10:20:25;;;;;;;9.23;4.93;;;12.50;99.90;;;;;;5039976;28;20190;-91
2023/11/15 10:22:57;;;;;;;10.63;4.67;;;12.50;99.90;;;;;;5057148;28;20195;-89
2023/11/15 10:25:25;;;;;;;9.83;4.60;;;12.60;99.90;;;;;;5039423;28;20185;-90
2023/11/15 10:27:59;;;;;;;8.53;4.17;;;12.80;99.90;;;;;;5039590;28;20297;-90
2023/11/15 10:30:26;;;;;;;10.43;4.30;;;12.90;99.90;;;;;;5039707;28;20202;-90
2023/11/15 10:33:13;;;;;;;12.03;4.30;;;13.00;99.90;;;;;;5058506;28;20289;-91
2023/11/15 10:35:43;;;;;;;12.27;4.10;;;12.90;99.90;;;;;;5057244;28;20221;-90
2023/11/15 10:38:14;;;;;;;12.53;4.33;;;12.90;99.90;;;;;;5056186;28;20198;-91
2023/11/15 10:40:41;;;;;;;9.30;4.67;;;13.10;99.90;;;;;;5038105;28;20190;-90
2023/11/15 10:43:11;;;;;;;9.40;4.57;;;13.30;99.90;;;;;;5038613;28;20594;-90
2023/11/15 10:45:40;;;;;;;8.10;3.87;;;13.30;99.90;;;;;;5038558;28;20229;-89
2023/11/15 10:48:11;;;;;;;9.93;4.10;;;13.30;99.90;;;;;;5037200;28;20211;-89
2023/11/15 10:50:44;;;;;;;10.07;4.93;;;13.40;99.90;;;;;;5055409;28;20163;-89
2023/11/15 10:53:11;;;;;;;14.30;4.30;;;13.30;99.90;;;;;;5038023;28;20255;-91
2023/11/15 10:55:39;;;;;;;12.70;4.20;;;13.10;99.90;;;;;;5037737;28;20262;-90
2023/11/15 10:58:06;;;;;;;11.07;4.30;;;12.80;99.90;;;;;;5037479;28;20178;-90
2023/11/15 11:00:34;;;;;;;9.97;4.60;;;12.70;99.90;;;;;;5037381;28;20183;-91
2023/11/15 11:03:05;;;;;;;11.90;4.70;;;12.60;99.90;;;;;;5055664;28;20263;-91
2023/11/15 11:05:45;;;;;;;9.63;4.00;;;12.70;99.90;;;;;;5037471;28;20189;-90
2023/11/15 11:08:22;;;;;;;8.23;4.07;;;12.70;99.90;;;;;;5037200;28;20213;-90
2023/11/15 11:11:17;;;;;;;8.57;4.00;;;12.90;99.90;;;;;;5037305;28;20178;-91
2023/11/15 11:13:43;;;;;;;9.03;3.90;;;12.90;99.90;;;;;;5037069;28;20194;-90
2023/11/15 11:16:26;;;;;;;7.03;4.30;;;12.90;99.90;;;;;;5037258;28;20190;-90
2023/11/15 11:19:16;;;;;;;8.20;3.87;;;12.90;99.90;;;;;;5037125;28;20213;-88
2023/11/15 11:22:02;;;;;;;8.57;4.20;;;12.80;99.90;;;;;;5036650;28;20175;-90
2023/11/15 11:24:39;;;;;;;6.73;4.00;;;12.60;99.90;;;;;;5038270;28;20181;-90
2023/11/15 11:27:28;;;;;;;7.60;4.30;;;12.50;99.90;;;;;;5036995;28;20198;-91
2023/11/15 11:30:00;;;;;;;18.10;4.90;;;12.30;99.90;;;;;;5037678;28;20316;-89
2023/11/15 11:32:27;;;;;;;10.37;5.30;;;12.20;99.90;;;;;;5039503;28;20233;-89
2023/11/15 11:35:06;;;;;;;10.63;4.53;;;12.20;99.90;;;;;;5057583;28;20182;-90
2023/11/15 11:37:50;;;;;;;11.77;4.53;;;12.20;99.90;;;;;;5041105;28;20246;-89
2023/11/15 11:40:17;;;;;;;12.60;4.60;;;12.20;99.90;;;;;;5038267;28;20178;-89
2023/11/15 11:42:47;;;;;;;9.13;4.23;;;12.20;99.90;;;;;;5037823;28;20209;-90
2023/11/15 11:45:14;;;;;;;6.17;4.37;;;12.20;99.90;;;;;;5037243;28;20186;-91
2023/11/15 11:47:40;;;;;;;8.50;4.83;;;12.20;99.90;;;;;;5037525;28;20202;-91
2023/11/15 11:50:07;;;;;;;7.73;4.50;;;12.30;99.90;;;;;;5037312;28;20198;-90
2023/11/15 11:52:36;;;;;;;13.73;4.40;;;12.40;99.90;;;;;;5037263;28;20218;-90
2023/11/15 11:55:05;;;;;;;9.73;4.37;;;12.50;99.90;;;;;;5055867;28;20246;-90
2023/11/15 11:57:30;;;;;;;8.77;4.30;;;12.40;99.90;;;;;;5037951;28;20523;-91
2023/11/15 12:00:00;;;;;;;8.03;4.63;;;12.40;1.00;;;;;;5037715;28;20181;-91
2023/11/15 12:02:35;;;;;;;6.43;4.10;;;12.40;21.70;;;;;;5038159;28;20199;-91
2023/11/15 12:05:02;;;;;;;6.90;4.13;;;12.40;99.90;;;;;;5037727;28;20210;-90
2023/11/15 12:07:28;;;;;;;8.17;4.20;;;12.40;3.90;;;;;;5036959;28;20681;-90
2023/11/15 12:10:01;;;;;;;7.90;4.57;;;12.50;1.00;;;;;;5056662;28;20166;-91
2023/11/15 12:12:27;;;;;;;4.53;3.80;;;12.40;19.10;;;;;;5037405;28;20281;-91
2023/11/15 12:14:59;;;;;;;7.20;3.60;;;12.40;1.00;;;;;;5055732;28;20191;-90
2023/11/15 12:17:39;;;;;;;7.57;4.37;;;12.40;99.90;;;;;;5056131;28;20170;-91
2023/11/15 12:20:08;;;;;;;6.60;4.03;;;12.30;99.90;;;;;;5037349;28;20182;-90
2023/11/15 12:22:40;;;;;;;11.07;4.70;;;12.20;1.00;;;;;;5055441;28;20614;-90
2023/11/15 12:25:16;;;;;;;11.37;4.80;;;12.10;39.50;;;;;;5037380;28;20174;-90
2023/11/15 12:27:43;;;;;;;8.80;4.27;;;12.00;9.70;;;;;;5036729;28;20307;-90
2023/11/15 12:30:10;;;;;;;12.63;4.43;;;11.90;1.00;;;;;;5047457;28;20182;-87
2023/11/15 12:32:38;;;;;;;8.47;4.73;;;11.80;99.90;;;;;;5059511;28;20190;-87
2023/11/15 12:35:09;;;;;;;6.63;4.23;;;11.70;1.00;;;;;;5042141;28;20186;-90
2023/11/15 12:37:35;;;;;;;5.63;4.90;;;11.60;1.00;;;;;;5036579;28;20264;-90
2023/11/15 12:40:20;;;;;;;5.67;4.23;;;11.60;99.90;;;;;;5035870;28;20183;-90